createdAt,value
2017-12-28T00:01:52.633Z,42.30
2017-12-28T00:04:25.510Z,42.30
2017-12-28T00:06:59.025Z,42.30
2017-12-28T00:12:11.445Z,42.30
2017-12-28T00:14:44.225Z,42.30
2017-12-28T00:17:16.901Z,42.30
2017-12-28T00:19:49.463Z,42.30
2017-12-28T00:22:22.055Z,42.30
2017-12-28T00:24:54.597Z,42.30
2017-12-28T00:27:27.295Z,42.30
2017-12-28T00:29:59.921Z,42.30
2017-12-28T00:32:33.137Z,42.40
2017-12-28T00:35:05.701Z,42.30
2017-12-28T00:37:39.251Z,42.30
2017-12-28T00:40:11.898Z,42.30
2017-12-28T00:42:45.317Z,42.40
2017-12-28T00:45:17.741Z,42.30
2017-12-28T00:47:50.165Z,42.40
2017-12-28T00:50:23.117Z,42.30
2017-12-28T00:52:56.207Z,42.30
2017-12-28T00:55:28.944Z,42.30
2017-12-28T00:58:02.611Z,42.30
2017-12-28T01:00:36.079Z,42.40
2017-12-28T01:03:08.631Z,42.30
2017-12-28T01:05:41.258Z,42.30
2017-12-28T01:08:13.805Z,42.30
2017-12-28T01:10:46.483Z,42.30
2017-12-28T01:13:19.364Z,42.30
2017-12-28T01:15:52.041Z,42.30
2017-12-28T01:18:25.802Z,42.30
2017-12-28T01:20:58.319Z,42.30
2017-12-28T01:23:31.106Z,42.30
2017-12-28T01:26:04.749Z,42.30
2017-12-28T01:28:37.390Z,42.30
2017-12-28T01:31:10.010Z,42.30
2017-12-28T01:33:42.520Z,42.30
2017-12-28T01:36:15.411Z,42.30
2017-12-28T01:38:49.420Z,42.30
2017-12-28T01:41:21.971Z,42.30
2017-12-28T01:43:57.847Z,42.40
2017-12-28T01:46:30.214Z,42.30
2017-12-28T01:49:04.612Z,42.30
2017-12-28T01:51:37.207Z,42.30
2017-12-28T01:54:10.397Z,42.30
2017-12-28T01:56:43.830Z,42.30
2017-12-28T01:59:16.505Z,42.30
2017-12-28T02:01:49.084Z,42.30
2017-12-28T02:04:21.820Z,42.30
2017-12-28T02:06:54.914Z,42.30
2017-12-28T02:09:27.525Z,42.30
2017-12-28T02:12:00.097Z,42.30
2017-12-28T02:14:32.451Z,42.30
2017-12-28T02:17:05.422Z,42.30
2017-12-28T02:19:38.004Z,43.00
2017-12-28T02:22:10.591Z,42.30
2017-12-28T02:24:43.070Z,42.30
2017-12-28T02:27:15.626Z,42.30
2017-12-28T02:29:48.040Z,42.30
2017-12-28T02:32:20.672Z,42.30
2017-12-28T02:34:54.066Z,42.40
2017-12-28T02:37:27.595Z,42.30
2017-12-28T02:40:00.269Z,42.30
2017-12-28T02:42:33.049Z,42.30
2017-12-28T02:45:05.633Z,42.30
2017-12-28T02:47:38.048Z,42.30
2017-12-28T02:50:10.677Z,42.30
2017-12-28T02:52:44.072Z,42.30
2017-12-28T02:55:16.921Z,42.30
2017-12-28T02:57:49.497Z,42.30
2017-12-28T03:00:22.108Z,42.30
2017-12-28T03:02:54.852Z,42.30
2017-12-28T03:05:27.221Z,42.20
2017-12-28T03:07:59.700Z,42.30
2017-12-28T03:10:32.170Z,42.70
2017-12-28T03:13:05.481Z,42.30
2017-12-28T03:15:38.068Z,42.30
2017-12-28T03:18:11.437Z,42.30
2017-12-28T03:20:44.043Z,42.30
2017-12-28T03:23:16.731Z,42.30
2017-12-28T03:25:49.293Z,42.20
2017-12-28T03:28:21.769Z,42.30
2017-12-28T03:30:55.035Z,42.30
2017-12-28T03:33:28.660Z,42.30
2017-12-28T03:36:01.102Z,42.30
2017-12-28T03:38:33.676Z,42.30
2017-12-28T03:41:06.884Z,42.40
2017-12-28T03:43:39.569Z,42.30
2017-12-28T03:46:12.256Z,42.30
2017-12-28T03:48:44.693Z,42.30
2017-12-28T03:51:17.342Z,42.30
2017-12-28T03:53:50.186Z,42.20
2017-12-28T03:56:22.975Z,42.20
2017-12-28T03:58:55.407Z,42.30
2017-12-28T04:01:29.006Z,42.30
2017-12-28T04:04:03.390Z,42.30
2017-12-28T04:06:35.833Z,42.30
2017-12-28T04:09:08.709Z,42.30
2017-12-28T04:11:41.252Z,42.30
2017-12-28T04:14:14.031Z,42.20
2017-12-28T04:16:46.578Z,42.30
2017-12-28T04:19:19.091Z,42.30
2017-12-28T04:21:51.896Z,42.30
2017-12-28T04:24:24.453Z,42.30
2017-12-28T04:27:00.051Z,42.30
2017-12-28T04:29:32.692Z,42.20
2017-12-28T04:32:06.021Z,42.90
2017-12-28T04:34:38.835Z,42.20
2017-12-28T04:37:11.309Z,42.30
2017-12-28T04:39:43.812Z,42.30
2017-12-28T04:42:16.357Z,42.20
2017-12-28T04:44:49.036Z,42.30
2017-12-28T04:47:22.321Z,42.30
2017-12-28T04:49:55.843Z,42.90
2017-12-28T04:52:28.329Z,42.20
2017-12-28T04:55:00.901Z,42.20
2017-12-28T04:57:33.564Z,42.20
2017-12-28T05:00:06.147Z,42.20
2017-12-28T05:02:38.714Z,42.20
2017-12-28T05:05:16.408Z,42.30
2017-12-28T05:07:49.178Z,42.20
2017-12-28T05:10:21.859Z,42.20
2017-12-28T05:12:54.368Z,42.30
2017-12-28T05:15:27.141Z,42.30
2017-12-28T05:18:00.149Z,42.20
2017-12-28T05:20:33.589Z,42.20
2017-12-28T05:23:06.060Z,42.20
2017-12-28T05:25:38.656Z,42.30
2017-12-28T05:28:11.213Z,42.20
2017-12-28T05:30:43.789Z,42.30
2017-12-28T05:33:16.261Z,42.20
2017-12-28T05:35:48.841Z,42.60
2017-12-28T05:38:21.343Z,42.20
2017-12-28T05:40:53.887Z,42.20
2017-12-28T05:43:27.167Z,42.20
2017-12-28T05:46:01.414Z,42.20
2017-12-28T05:48:34.004Z,42.20
2017-12-28T05:51:07.382Z,42.20
2017-12-28T05:53:40.688Z,42.20
2017-12-28T05:56:14.184Z,42.90
2017-12-28T05:58:46.964Z,42.20
2017-12-28T06:01:19.624Z,42.20
2017-12-28T06:03:52.287Z,42.10
2017-12-28T06:06:25.070Z,42.10
2017-12-28T06:08:57.876Z,42.10
2017-12-28T06:11:30.296Z,42.80
2017-12-28T06:14:02.888Z,42.10
2017-12-28T06:16:35.481Z,42.10
2017-12-28T06:19:08.842Z,42.20
2017-12-28T06:21:41.544Z,42.10
2017-12-28T06:24:14.017Z,42.10
2017-12-28T06:26:46.729Z,42.10
2017-12-28T06:29:19.920Z,42.10
2017-12-28T06:31:53.183Z,42.10
2017-12-28T06:34:28.125Z,42.10
2017-12-28T06:37:00.892Z,42.10
2017-12-28T06:39:33.503Z,42.10
2017-12-28T06:42:06.119Z,42.10
2017-12-28T06:44:38.516Z,42.10
2017-12-28T06:47:11.237Z,42.10
2017-12-28T06:49:43.833Z,42.10
2017-12-28T06:52:17.372Z,42.10
2017-12-28T06:54:50.271Z,42.10
2017-12-28T06:57:24.465Z,42.10
2017-12-28T06:59:57.174Z,42.10
2017-12-28T07:02:30.049Z,42.10
2017-12-28T07:05:02.701Z,42.10
2017-12-28T07:07:38.982Z,42.10
2017-12-28T07:10:11.850Z,42.10
2017-12-28T07:12:44.419Z,42.10
2017-12-28T07:15:17.071Z,42.10
2017-12-28T07:17:49.810Z,42.10
2017-12-28T07:20:22.349Z,42.10
2017-12-28T07:22:55.267Z,42.10
2017-12-28T07:25:27.712Z,42.10
2017-12-28T07:28:00.280Z,42.10
2017-12-28T07:30:32.759Z,42.10
2017-12-28T07:33:05.678Z,42.10
2017-12-28T07:35:38.319Z,42.00
2017-12-28T07:38:11.632Z,42.10
2017-12-28T07:40:44.295Z,42.10
2017-12-28T07:43:16.864Z,42.10
2017-12-28T07:45:49.442Z,42.00
2017-12-28T07:48:21.893Z,42.00
2017-12-28T07:50:54.494Z,42.00
2017-12-28T07:53:27.881Z,42.10
2017-12-28T07:56:00.593Z,42.00
2017-12-28T07:58:33.476Z,42.00
2017-12-28T08:01:06.676Z,41.80
2017-12-28T08:03:39.514Z,41.80
2017-12-28T08:06:12.297Z,42.20
2017-12-28T08:08:46.849Z,42.40
2017-12-28T08:11:19.620Z,42.40
2017-12-28T08:13:52.273Z,42.20
2017-12-28T08:16:24.989Z,42.20
2017-12-28T08:18:57.874Z,42.10
2017-12-28T08:21:30.648Z,42.20
2017-12-28T08:24:03.329Z,42.10
2017-12-28T08:26:36.027Z,42.20
2017-12-28T08:29:09.381Z,42.40
2017-12-28T08:31:46.764Z,43.30
2017-12-28T08:34:19.847Z,42.50
2017-12-28T08:36:53.208Z,42.90
2017-12-28T08:39:25.845Z,42.90
2017-12-28T08:41:58.489Z,43.00
2017-12-28T08:44:30.962Z,43.10
2017-12-28T08:47:03.453Z,43.00
2017-12-28T08:49:36.253Z,43.10
2017-12-28T08:52:08.822Z,43.40
2017-12-28T08:54:41.442Z,43.40
2017-12-28T08:57:14.095Z,43.30
2017-12-28T08:59:46.762Z,43.20
2017-12-28T09:02:19.301Z,42.90
2017-12-28T09:04:52.022Z,42.10
2017-12-28T09:07:24.687Z,42.10
2017-12-28T09:09:57.434Z,42.70
2017-12-28T09:12:29.959Z,42.70
2017-12-28T09:15:02.480Z,42.90
2017-12-28T09:17:35.163Z,43.00
2017-12-28T09:20:08.250Z,42.90
2017-12-28T09:22:40.826Z,42.90
2017-12-28T09:25:13.380Z,42.90
2017-12-28T09:27:45.956Z,42.80
2017-12-28T09:30:18.454Z,43.20
2017-12-28T09:32:50.926Z,43.20
2017-12-28T09:35:23.391Z,42.80
2017-12-28T09:37:55.973Z,42.50
2017-12-28T09:40:28.656Z,42.30
2017-12-28T09:43:01.168Z,42.50
2017-12-28T09:45:40.769Z,42.90
2017-12-28T09:48:13.540Z,42.20
2017-12-28T09:50:46.112Z,42.40
2017-12-28T09:53:18.701Z,42.30
2017-12-28T09:55:51.382Z,42.50
2017-12-28T09:58:25.003Z,43.60
2017-12-28T10:00:57.580Z,43.60
2017-12-28T10:03:30.257Z,43.20
2017-12-28T10:06:02.929Z,44.20
2017-12-28T10:08:35.476Z,45.20
2017-12-28T10:11:08.053Z,44.60
2017-12-28T10:13:40.624Z,44.00
2017-12-28T10:16:13.066Z,44.30
2017-12-28T10:18:45.573Z,44.50
2017-12-28T10:21:19.041Z,44.30
2017-12-28T10:23:51.754Z,44.30
2017-12-28T10:26:24.220Z,44.00
2017-12-28T10:28:57.607Z,43.40
2017-12-28T10:31:30.190Z,43.40
2017-12-28T10:34:02.730Z,43.60
2017-12-28T10:36:35.340Z,43.50
2017-12-28T10:39:07.901Z,43.60
2017-12-28T10:41:40.397Z,43.50
2017-12-28T10:44:13.616Z,43.40
2017-12-28T10:46:47.002Z,43.20
2017-12-28T10:49:19.761Z,43.20
2017-12-28T10:51:52.324Z,43.20
2017-12-28T10:54:24.791Z,43.00
2017-12-28T10:56:57.385Z,43.00
2017-12-28T10:59:29.945Z,43.00
2017-12-28T11:02:02.462Z,43.00
2017-12-28T11:04:35.070Z,42.80
2017-12-28T11:07:07.564Z,42.70
2017-12-28T11:09:40.237Z,42.50
2017-12-28T11:12:12.836Z,42.50
2017-12-28T11:14:45.415Z,42.40
2017-12-28T11:17:18.743Z,42.50
2017-12-28T11:19:51.204Z,42.50
2017-12-28T11:22:23.891Z,42.20
2017-12-28T11:24:56.300Z,42.20
2017-12-28T11:27:28.981Z,42.00
2017-12-28T11:30:01.473Z,42.10
2017-12-28T11:32:33.957Z,42.30
2017-12-28T11:35:06.659Z,42.50
2017-12-28T11:37:39.236Z,42.40
2017-12-28T11:40:12.086Z,42.20
2017-12-28T11:42:44.763Z,42.30
2017-12-28T11:45:17.324Z,42.30
2017-12-28T11:47:50.153Z,42.20
2017-12-28T11:50:23.494Z,42.30
2017-12-28T11:52:56.093Z,42.30
2017-12-28T11:55:28.601Z,42.30
2017-12-28T11:58:01.228Z,42.20
2017-12-28T12:00:33.700Z,42.20
2017-12-28T12:03:06.389Z,42.20
2017-12-28T12:05:38.848Z,42.10
2017-12-28T12:08:11.677Z,42.10
2017-12-28T12:10:44.254Z,42.10
2017-12-28T12:13:17.633Z,41.90
2017-12-28T12:15:50.394Z,41.90
2017-12-28T12:18:22.901Z,41.80
2017-12-28T12:20:55.451Z,41.80
2017-12-28T12:23:28.011Z,41.70
2017-12-28T12:26:00.627Z,41.80
2017-12-28T12:28:33.176Z,41.70
2017-12-28T12:31:05.951Z,41.70
2017-12-28T12:33:38.764Z,41.80
2017-12-28T12:36:11.305Z,41.90
2017-12-28T12:38:43.777Z,41.90
2017-12-28T12:41:16.351Z,41.80
2017-12-28T12:43:49.341Z,41.70
2017-12-28T12:46:21.796Z,41.70
2017-12-28T12:48:55.957Z,41.80
2017-12-28T12:51:28.504Z,42.30
2017-12-28T12:54:00.977Z,41.70
2017-12-28T12:56:33.443Z,41.60
2017-12-28T12:59:05.918Z,41.70
2017-12-28T13:01:38.477Z,41.50
2017-12-28T13:04:11.053Z,41.60
2017-12-28T13:06:43.577Z,41.70
2017-12-28T13:09:16.024Z,41.70
2017-12-28T13:11:49.412Z,41.90
2017-12-28T13:14:22.100Z,41.90
2017-12-28T13:16:54.785Z,41.90
2017-12-28T13:19:28.160Z,42.00
2017-12-28T13:22:00.733Z,42.00
2017-12-28T13:24:33.243Z,42.00
2017-12-28T13:29:43.112Z,42.50
2017-12-28T13:32:15.689Z,42.60
2017-12-28T13:34:48.357Z,42.30
2017-12-28T13:37:20.965Z,42.50
2017-12-28T13:39:53.576Z,42.80
2017-12-28T13:42:26.897Z,42.40
2017-12-28T13:45:00.413Z,42.80
2017-12-28T13:47:32.856Z,42.70
2017-12-28T13:50:05.503Z,42.60
2017-12-28T13:52:37.991Z,42.70
2017-12-28T13:55:11.208Z,42.90
2017-12-28T13:57:44.584Z,43.20
2017-12-28T14:00:17.027Z,42.60
2017-12-28T14:02:49.730Z,42.20
2017-12-28T14:05:22.232Z,41.90
2017-12-28T14:07:55.497Z,42.30
2017-12-28T14:10:29.669Z,42.10
2017-12-28T14:13:02.896Z,42.20
2017-12-28T14:15:36.191Z,42.20
2017-12-28T14:18:08.761Z,42.10
2017-12-28T14:20:41.147Z,42.10
2017-12-28T14:23:13.613Z,42.00
2017-12-28T14:25:46.232Z,42.00
2017-12-28T14:28:18.974Z,41.90
2017-12-28T14:30:51.498Z,41.90
2017-12-28T14:33:24.707Z,41.80
2017-12-28T14:35:57.410Z,41.80
2017-12-28T14:38:29.880Z,41.60
2017-12-28T14:41:02.441Z,41.80
2017-12-28T14:43:35.790Z,41.80
2017-12-28T14:46:08.326Z,41.80
2017-12-28T14:48:41.109Z,41.90
2017-12-28T14:51:13.786Z,41.90
2017-12-28T14:53:46.181Z,41.80
2017-12-28T14:56:18.809Z,42.30
2017-12-28T14:58:51.311Z,42.40
2017-12-28T15:01:23.833Z,42.60
2017-12-28T15:03:56.300Z,42.60
2017-12-28T15:06:29.633Z,42.80
2017-12-28T15:09:02.077Z,42.70
2017-12-28T15:11:35.415Z,41.90
2017-12-28T15:14:08.185Z,41.90
2017-12-28T15:16:40.787Z,41.60
2017-12-28T15:19:13.341Z,42.40
2017-12-28T15:21:46.617Z,42.90
2017-12-28T15:24:19.088Z,42.90
2017-12-28T15:26:51.612Z,43.00
2017-12-28T15:29:24.941Z,43.40
2017-12-28T15:31:57.530Z,43.00
2017-12-28T15:34:30.258Z,43.00
2017-12-28T15:37:03.419Z,42.90
2017-12-28T15:39:35.988Z,42.80
2017-12-28T15:42:08.608Z,41.90
2017-12-28T15:44:41.140Z,42.30
2017-12-28T15:47:14.446Z,43.20
2017-12-28T15:49:47.596Z,42.60
2017-12-28T15:52:20.905Z,43.00
2017-12-28T15:54:53.371Z,42.80
2017-12-28T15:57:25.937Z,42.90
2017-12-28T15:59:58.513Z,42.90
2017-12-28T16:02:31.155Z,43.00
2017-12-28T16:05:03.684Z,43.00
2017-12-28T16:07:36.223Z,43.00
2017-12-28T16:10:08.780Z,43.10
2017-12-28T16:12:41.419Z,43.20
2017-12-28T16:15:13.906Z,43.20
2017-12-28T16:17:46.497Z,43.20
2017-12-28T16:20:19.087Z,43.40
2017-12-28T16:22:52.440Z,42.50
2017-12-28T16:25:24.892Z,42.50
2017-12-28T16:27:57.529Z,42.40
2017-12-28T16:30:30.813Z,42.30
2017-12-28T16:33:03.320Z,42.30
2017-12-28T16:35:36.704Z,42.20
2017-12-28T16:38:09.319Z,42.10
2017-12-28T16:40:41.966Z,42.10
2017-12-28T16:43:14.515Z,42.00
2017-12-28T16:45:47.125Z,41.90
2017-12-28T16:48:19.635Z,41.80
2017-12-28T16:50:52.896Z,41.80
2017-12-28T16:53:25.414Z,41.70
2017-12-28T16:55:58.051Z,41.70
2017-12-28T16:58:31.431Z,41.70
2017-12-28T17:01:03.840Z,41.60
2017-12-28T17:03:37.249Z,42.40
2017-12-28T17:06:09.855Z,41.60
2017-12-28T17:08:42.442Z,41.50
2017-12-28T17:11:14.897Z,41.50
2017-12-28T17:13:47.528Z,41.50
2017-12-28T17:16:20.002Z,41.50
2017-12-28T17:18:52.573Z,41.40
2017-12-28T17:21:25.176Z,41.50
2017-12-28T17:23:57.791Z,41.30
2017-12-28T17:26:30.334Z,41.40
2017-12-28T17:29:02.873Z,41.40
2017-12-28T17:31:35.358Z,41.40
2017-12-28T17:34:07.945Z,41.50
2017-12-28T17:36:40.491Z,41.40
2017-12-28T17:39:13.075Z,41.40
2017-12-28T17:41:46.490Z,41.50
2017-12-28T17:44:19.823Z,41.50
2017-12-28T17:46:52.308Z,41.40
2017-12-28T17:49:24.828Z,41.40
2017-12-28T17:51:58.147Z,41.50
2017-12-28T17:54:30.641Z,41.40
2017-12-28T17:57:03.890Z,41.50
2017-12-28T17:59:36.351Z,41.40
2017-12-28T18:02:08.885Z,41.40
2017-12-28T18:04:41.433Z,41.40
2017-12-28T18:07:13.889Z,41.40
2017-12-28T18:09:46.563Z,41.40
2017-12-28T18:12:18.996Z,41.40
2017-12-28T18:14:51.651Z,41.40
2017-12-28T18:17:24.241Z,41.40
2017-12-28T18:19:56.782Z,41.30
2017-12-28T18:22:29.254Z,41.30
2017-12-28T18:25:01.799Z,41.30
2017-12-28T18:27:34.263Z,41.30
2017-12-28T18:30:06.804Z,41.30
2017-12-28T18:32:39.369Z,41.30
2017-12-28T18:35:11.988Z,41.30
2017-12-28T18:37:45.207Z,41.30
2017-12-28T18:40:17.809Z,41.30
2017-12-28T18:42:50.411Z,41.30
2017-12-28T18:45:22.986Z,41.20
2017-12-28T18:47:55.528Z,41.30
2017-12-28T18:50:28.853Z,41.20
2017-12-28T18:53:01.456Z,41.20
2017-12-28T18:55:34.036Z,41.20
2017-12-28T18:58:07.326Z,41.20
2017-12-28T19:00:40.638Z,41.40
2017-12-28T19:03:13.922Z,40.70
2017-12-28T19:05:46.478Z,41.20
2017-12-28T19:08:18.971Z,41.10
2017-12-28T19:10:51.579Z,41.20
2017-12-28T19:13:24.205Z,41.10
2017-12-28T19:15:56.747Z,41.10
2017-12-28T19:18:29.293Z,41.10
2017-12-28T19:21:01.805Z,41.10
2017-12-28T19:23:34.344Z,41.10
2017-12-28T19:26:06.756Z,41.10
2017-12-28T19:28:39.292Z,41.10
2017-12-28T19:31:11.868Z,41.00
2017-12-28T19:33:45.141Z,41.00
2017-12-28T19:36:17.667Z,41.00
2017-12-28T19:38:50.998Z,41.10
2017-12-28T19:41:23.635Z,41.00
2017-12-28T19:43:56.172Z,41.00
2017-12-28T19:46:28.723Z,41.00
2017-12-28T19:49:01.176Z,41.00
2017-12-28T19:51:33.711Z,41.00
2017-12-28T19:54:06.225Z,41.00
2017-12-28T19:56:39.563Z,41.00
2017-12-28T19:59:12.842Z,41.10
2017-12-28T20:01:45.348Z,40.80
2017-12-28T20:04:17.923Z,40.90
2017-12-28T20:06:50.482Z,40.90
2017-12-28T20:09:23.050Z,40.90
2017-12-28T20:11:55.606Z,40.90
2017-12-28T20:14:28.167Z,40.80
2017-12-28T20:17:00.699Z,40.80
2017-12-28T20:19:33.180Z,40.80
2017-12-28T20:22:06.443Z,40.80
2017-12-28T20:24:38.936Z,40.80
2017-12-28T20:27:12.303Z,40.80
2017-12-28T20:29:44.746Z,40.80
2017-12-28T20:32:17.298Z,40.80
2017-12-28T20:34:50.535Z,40.80
2017-12-28T20:37:23.032Z,40.80
2017-12-28T20:39:55.582Z,40.70
2017-12-28T20:42:28.200Z,40.70
2017-12-28T20:45:01.461Z,40.80
2017-12-28T20:47:34.026Z,40.60
2017-12-28T20:50:06.490Z,40.70
2017-12-28T20:52:39.140Z,40.60
2017-12-28T20:55:11.759Z,40.70
2017-12-28T20:57:45.166Z,40.60
2017-12-28T21:00:17.663Z,40.60
2017-12-28T21:02:50.251Z,40.60
2017-12-28T21:05:22.790Z,40.60
2017-12-28T21:07:55.321Z,40.60
2017-12-28T21:10:27.804Z,40.60
2017-12-28T21:13:00.393Z,40.60
2017-12-28T21:15:32.940Z,40.50
2017-12-28T21:18:05.448Z,40.50
2017-12-28T21:20:38.000Z,40.50
2017-12-28T21:23:11.223Z,40.50
2017-12-28T21:25:43.841Z,40.50
2017-12-28T21:28:16.367Z,40.50
2017-12-28T21:30:48.948Z,40.50
2017-12-28T21:33:21.479Z,40.40
2017-12-28T21:35:53.973Z,40.40
2017-12-28T21:38:26.620Z,40.40
2017-12-28T21:40:59.109Z,40.40
2017-12-28T21:43:31.685Z,40.40
2017-12-28T21:46:04.191Z,40.40
2017-12-28T21:48:36.878Z,40.40
2017-12-28T21:51:09.296Z,40.40
2017-12-28T21:53:41.747Z,40.40
2017-12-28T21:56:15.123Z,41.10
2017-12-28T21:58:47.784Z,40.40
2017-12-28T22:01:20.227Z,40.40
2017-12-28T22:03:52.743Z,40.40
2017-12-28T22:06:25.343Z,40.30
2017-12-28T22:08:57.929Z,40.40
2017-12-28T22:11:30.453Z,40.40
2017-12-28T22:14:02.932Z,40.30
2017-12-28T22:16:35.391Z,40.30
2017-12-28T22:19:08.708Z,40.30
2017-12-28T22:21:41.261Z,40.30
2017-12-28T22:24:14.587Z,40.30
2017-12-28T22:26:47.833Z,40.60
2017-12-28T22:29:21.161Z,40.80
2017-12-28T22:31:53.750Z,40.30
2017-12-28T22:34:26.256Z,40.30
2017-12-28T22:36:58.783Z,40.30
2017-12-28T22:39:31.374Z,40.20
2017-12-28T22:42:04.698Z,40.20
2017-12-28T22:44:37.340Z,40.20
2017-12-28T22:47:10.044Z,40.20
2017-12-28T22:49:42.567Z,40.20
2017-12-28T22:52:15.123Z,40.20
2017-12-28T22:54:47.680Z,40.20
2017-12-28T22:57:20.259Z,40.20
2017-12-28T22:59:53.520Z,40.20
2017-12-28T23:02:26.057Z,40.10
2017-12-28T23:04:58.630Z,40.20
2017-12-28T23:07:31.059Z,40.20
2017-12-28T23:10:04.394Z,40.20
2017-12-28T23:12:36.852Z,40.20
2017-12-28T23:15:10.181Z,40.10
2017-12-28T23:17:42.781Z,40.00
2017-12-28T23:20:15.315Z,40.10
2017-12-28T23:22:47.733Z,40.10
2017-12-28T23:25:21.100Z,40.20
2017-12-28T23:27:53.577Z,40.10
2017-12-28T23:30:26.232Z,40.10
2017-12-28T23:32:58.791Z,40.10
2017-12-28T23:35:31.321Z,40.10
2017-12-28T23:38:03.782Z,40.10
2017-12-28T23:40:36.366Z,40.10
2017-12-28T23:43:09.006Z,40.10
2017-12-28T23:45:41.457Z,40.10
2017-12-28T23:48:13.830Z,40.10
2017-12-28T23:50:46.366Z,40.10
2017-12-28T23:53:18.927Z,40.10
2017-12-28T23:55:51.547Z,40.40
2017-12-28T23:58:24.061Z,40.10
